Time;durP1;ratioP1;P1;durP2;ratioP2;P2;SDS_P1;SDS_P2;PMS_P1;PMS_P2;Temp;Humidity;BMP_temperature;BMP_pressure;BME280_temperature;BME280_humidity;BME280_pressure;Samples;Min_cycle;Max_cycle;Signal;HPM_P1;HPM_P2
2022/01/05 00:01:46;;;;;;;;;;;;;;;10.80;42.25;101105.69;5014267;28;19929;-82
2022/01/05 00:04:11;;;;;;;;;;;;;;;10.56;42.85;101108.66;4997030;28;19940;-77
2022/01/05 00:06:36;;;;;;;;;;;;;;;10.49;42.82;101113.72;5014235;28;19917;-76
2022/01/05 00:09:02;;;;;;;;;;;;;;;10.53;42.71;101112.00;5014193;28;20000;-86
2022/01/05 00:11:28;;;;;;;;;;;;;;;10.20;43.43;101113.94;5014226;28;19917;-83
2022/01/05 00:13:56;;;;;;;;;;;;;;;10.56;42.39;101117.66;5014383;28;19918;-85
2022/01/05 00:16:21;;;;;;;;;;;;;;;10.40;43.05;101126.47;5014140;28;20017;-77
2022/01/05 00:18:46;;;;;;;;;;;;;;;10.55;42.71;101131.63;5014081;28;20035;-78
2022/01/05 00:21:12;;;;;;;;;;;;;;;10.60;42.33;101128.00;5014026;28;19917;-85
2022/01/05 00:23:37;;;;;;;;;;;;;;;10.56;42.55;101122.31;5014235;28;19967;-77
2022/01/05 00:26:04;;;;;;;;;;;;;;;10.66;42.24;101132.25;5014103;28;19917;-83
2022/01/05 00:28:30;;;;;;;;;;;;;;;10.63;42.47;101120.00;5013538;28;19921;-78
2022/01/05 00:30:55;;;;;;;;;;;;;;;10.64;42.48;101131.72;5013685;28;20063;-77
2022/01/05 00:33:20;;;;;;;;;;;;;;;10.59;42.89;101134.59;5013956;28;19944;-83
2022/01/05 00:35:46;;;;;;;;;;;;;;;10.47;43.05;101126.88;5014070;28;19940;-77
2022/01/05 00:38:11;;;;;;;;;;;;;;;10.37;43.35;101124.34;4996116;28;20007;-80
2022/01/05 00:40:37;;;;;;;;;;;;;;;10.57;42.96;101116.53;4996306;28;19945;-84
2022/01/05 00:43:02;;;;;;;;;;;;;;;10.69;42.77;101118.78;4996135;28;19918;-85
2022/01/05 00:45:28;;;;;;;;;;;;;;;10.42;43.18;101116.84;5013966;28;19918;-78
2022/01/05 00:47:53;;;;;;;;;;;;;;;10.53;43.08;101117.47;5013742;28;20430;-85
2022/01/05 00:50:19;;;;;;;;;;;;;;;10.49;43.11;101111.78;5013713;28;19949;-84
2022/01/05 00:52:44;;;;;;;;;;;;;;;10.48;43.19;101114.81;5013460;28;19976;-77
2022/01/05 00:55:10;;;;;;;;;;;;;;;10.34;43.37;101119.47;4996113;28;19971;-76
2022/01/05 00:57:35;;;;;;;;;;;;;;;10.20;43.74;101120.25;5013737;28;19949;-77
2022/01/05 01:00:01;;;;;;;;;;;;;;;10.19;43.70;101113.16;5013728;28;19918;-77
2022/01/05 01:02:26;;;;;;;;;;;;;;;10.00;44.11;101115.94;4995809;28;20359;-77
2022/01/05 01:04:52;;;;;;;;;;;;;;;9.87;44.49;101121.38;5013591;28;19917;-87
2022/01/05 01:07:17;;;;;;;;;;;;;;;10.13;43.97;101114.38;5014043;28;20502;-87
2022/01/05 01:09:43;;;;;;;;;;;;;;;10.23;43.73;101113.41;5013813;28;19921;-77
2022/01/05 01:12:09;;;;;;;;;;;;;;;10.22;43.67;101120.78;5013657;28;20394;-80
2022/01/05 01:14:34;;;;;;;;;;;;;;;10.19;43.81;101124.06;5013687;28;20299;-78
2022/01/05 01:17:00;;;;;;;;;;;;;;;10.25;43.64;101111.16;5013366;28;20333;-85
2022/01/05 01:19:25;;;;;;;;;;;;;;;9.82;44.73;101111.34;4996142;28;19917;-77
2022/01/05 01:21:51;;;;;;;;;;;;;;;10.10;44.07;101117.69;5013603;28;20322;-86
2022/01/05 01:24:16;;;;;;;;;;;;;;;10.21;43.74;101110.13;4996089;28;19924;-77
2022/01/05 01:26:42;;;;;;;;;;;;;;;9.99;44.13;101110.78;5013419;28;19924;-78
2022/01/05 01:29:07;;;;;;;;;;;;;;;10.28;43.63;101125.03;5013691;28;19957;-78
2022/01/05 01:31:33;;;;;;;;;;;;;;;10.19;43.82;101123.25;5013506;28;19975;-81
2022/01/05 01:33:58;;;;;;;;;;;;;;;9.99;44.23;101114.34;5013504;28;20463;-86
2022/01/05 01:36:26;;;;;;;;;;;;;;;10.15;43.92;101114.88;5013722;28;19953;-77
2022/01/05 01:38:51;;;;;;;;;;;;;;;10.32;43.47;101100.66;5013734;28;19918;-77
2022/01/05 01:41:17;;;;;;;;;;;;;;;10.28;43.55;101095.00;5013798;28;19918;-85
2022/01/05 01:43:43;;;;;;;;;;;;;;;10.19;43.78;101085.84;4998753;28;19929;-85
2022/01/05 01:46:08;;;;;;;;;;;;;;;10.14;43.92;101091.41;5017264;28;19917;-85
2022/01/05 01:48:34;;;;;;;;;;;;;;;10.22;43.74;101090.75;5017376;28;19917;-87
2022/01/05 01:50:59;;;;;;;;;;;;;;;10.28;43.55;101096.94;5016994;28;19976;-77
2022/01/05 01:53:25;;;;;;;;;;;;;;;10.11;43.83;101091.19;5017222;28;20376;-83
2022/01/05 01:55:50;;;;;;;;;;;;;;;10.37;43.14;101091.56;5017082;28;19917;-77
2022/01/05 01:58:21;;;;;;;;;;;;;;;10.30;43.42;101104.81;5017048;28;19924;-86
2022/01/05 02:00:47;;;;;;;;;;;;;;;10.01;44.00;101100.38;5017135;28;19917;-81
2022/01/05 02:03:14;;;;;;;;;;;;;;;10.34;43.19;101114.00;5016996;28;19917;-77
2022/01/05 02:05:39;;;;;;;;;;;;;;;10.30;43.25;101113.81;5016843;28;19982;-77
2022/01/05 02:08:05;;;;;;;;;;;;;;;10.51;42.99;101115.03;5017015;28;20435;-85
2022/01/05 02:10:30;;;;;;;;;;;;;;;10.68;42.73;101106.22;5016683;28;19925;-85
2022/01/05 02:12:56;;;;;;;;;;;;;;;10.69;42.58;101093.38;5016397;28;20287;-79
2022/01/05 02:15:21;;;;;;;;;;;;;;;10.56;42.89;101093.06;4998763;28;19922;-83
2022/01/05 02:18:07;;;;;;;;;;;;;;;10.63;42.66;101106.31;5016214;28;19918;-86
2022/01/05 02:20:33;;;;;;;;;;;;;;;10.62;42.56;101107.44;5016436;28;19960;-86
2022/01/05 02:22:58;;;;;;;;;;;;;;;10.61;42.75;101102.28;5016038;28;19960;-77
2022/01/05 02:25:24;;;;;;;;;;;;;;;10.60;42.61;101106.94;5016220;28;19983;-85
2022/01/05 02:27:50;;;;;;;;;;;;;;;10.63;42.49;101119.19;5016205;28;19963;-79
2022/01/05 02:30:21;;;;;;;;;;;;;;;10.66;42.35;101115.84;5016426;28;20273;-83
2022/01/05 02:32:47;;;;;;;;;;;;;;;10.63;42.31;101116.44;5015957;28;20352;-77
2022/01/05 02:35:13;;;;;;;;;;;;;;;10.67;42.43;101115.56;5015905;28;19957;-77
2022/01/05 02:37:40;;;;;;;;;;;;;;;10.64;42.30;101113.41;5015734;28;20372;-77
2022/01/05 02:40:05;;;;;;;;;;;;;;;10.51;42.28;101120.50;5015847;28;19917;-77
2022/01/05 02:42:32;;;;;;;;;;;;;;;10.54;42.23;101125.34;5015625;28;19917;-77
2022/01/05 02:44:58;;;;;;;;;;;;;;;10.47;42.19;101127.69;5015436;28;19929;-77
2022/01/05 02:47:23;;;;;;;;;;;;;;;10.46;42.22;101134.25;5016051;28;19918;-78
2022/01/05 02:49:49;;;;;;;;;;;;;;;10.45;42.10;101126.38;5015995;28;20395;-77
2022/01/05 02:52:14;;;;;;;;;;;;;;;10.44;42.24;101130.22;5016271;28;19918;-88
2022/01/05 02:54:40;;;;;;;;;;;;;;;10.39;42.12;101133.84;5014629;28;19918;-75
2022/01/05 02:57:06;;;;;;;;;;;;;;;10.37;42.20;101135.28;4998386;28;19918;-88
2022/01/05 02:59:31;;;;;;;;;;;;;;;10.37;41.98;101143.47;4998255;28;19918;-84
2022/01/05 03:01:57;;;;;;;;;;;;;;;10.25;42.34;101138.47;5015779;28;19918;-77
2022/01/05 03:04:23;;;;;;;;;;;;;;;10.15;42.62;101150.38;5015471;28;19925;-77
2022/01/05 03:06:48;;;;;;;;;;;;;;;10.13;42.48;101162.72;4997783;28;20364;-77
2022/01/05 03:09:14;;;;;;;;;;;;;;;10.16;42.56;101156.63;5015224;28;19970;-77
2022/01/05 03:11:39;;;;;;;;;;;;;;;10.09;42.51;101159.75;5015182;28;19948;-77
2022/01/05 03:14:05;;;;;;;;;;;;;;;10.06;42.54;101163.09;5015148;28;19913;-77
2022/01/05 03:16:30;;;;;;;;;;;;;;;10.08;42.53;101160.88;5015114;28;20044;-80
2022/01/05 03:18:56;;;;;;;;;;;;;;;9.97;42.74;101164.88;5014978;28;19920;-77
2022/01/05 03:21:21;;;;;;;;;;;;;;;9.94;42.76;101168.19;5014979;28;20004;-78
2022/01/05 03:23:47;;;;;;;;;;;;;;;9.83;43.01;101164.84;5014996;28;20295;-78
2022/01/05 03:26:13;;;;;;;;;;;;;;;9.78;43.19;101167.63;5015062;28;19936;-77
2022/01/05 03:28:38;;;;;;;;;;;;;;;9.87;43.04;101175.97;4997467;28;19917;-77
2022/01/05 03:31:03;;;;;;;;;;;;;;;9.76;43.26;101175.31;5014928;28;19917;-77
2022/01/05 03:33:29;;;;;;;;;;;;;;;9.60;43.58;101184.84;5014741;28;20108;-80
2022/01/05 03:35:55;;;;;;;;;;;;;;;9.80;43.29;101187.25;4997121;28;20016;-83
2022/01/05 03:38:20;;;;;;;;;;;;;;;9.79;43.21;101185.63;4997038;28;20010;-77
2022/01/05 03:40:46;;;;;;;;;;;;;;;9.81;43.01;101199.78;5014560;28;19973;-77
2022/01/05 03:43:12;;;;;;;;;;;;;;;9.91;42.92;101194.19;5014294;28;19921;-81
2022/01/05 03:45:38;;;;;;;;;;;;;;;9.80;43.08;101203.63;5014672;28;19924;-77
2022/01/05 03:48:05;;;;;;;;;;;;;;;9.89;42.46;101195.56;4996829;28;20019;-82
2022/01/05 03:50:30;;;;;;;;;;;;;;;9.92;42.61;101204.00;5014587;28;20375;-77
2022/01/05 03:52:56;;;;;;;;;;;;;;;9.93;42.68;101202.88;5014371;28;20000;-82
2022/01/05 03:55:21;;;;;;;;;;;;;;;9.97;42.42;101203.91;4997059;28;19921;-77
2022/01/05 03:57:47;;;;;;;;;;;;;;;9.99;42.14;101207.16;5014356;28;19944;-80
2022/01/05 04:00:12;;;;;;;;;;;;;;;9.90;42.46;101214.41;5014296;28;19925;-77
2022/01/05 04:02:38;;;;;;;;;;;;;;;9.80;42.63;101206.34;5014354;28;19917;-77
2022/01/05 04:05:03;;;;;;;;;;;;;;;9.73;43.02;101214.09;5014041;28;19917;-77
2022/01/05 04:07:29;;;;;;;;;;;;;;;9.66;43.14;101210.94;5013914;28;19921;-78
2022/01/05 04:09:54;;;;;;;;;;;;;;;9.70;42.95;101214.69;4996963;28;20273;-87
2022/01/05 04:12:20;;;;;;;;;;;;;;;9.65;43.29;101222.94;5014479;28;19914;-84
2022/01/05 04:14:45;;;;;;;;;;;;;;;9.71;43.04;101222.59;5014546;28;20387;-78
2022/01/05 04:17:11;;;;;;;;;;;;;;;9.73;43.06;101230.47;5014574;28;19918;-87
2022/01/05 04:19:36;;;;;;;;;;;;;;;9.70;43.08;101240.06;5014272;28;19921;-87
2022/01/05 04:22:02;;;;;;;;;;;;;;;9.74;42.91;101235.63;5014306;28;19962;-84
2022/01/05 04:24:27;;;;;;;;;;;;;;;9.73;42.91;101238.66;5014176;28;20352;-80
2022/01/05 04:26:53;;;;;;;;;;;;;;;9.73;42.96;101241.38;5014354;28;19920;-78
2022/01/05 04:29:19;;;;;;;;;;;;;;;9.84;42.82;101245.59;5014025;28;19941;-83
2022/01/05 04:31:45;;;;;;;;;;;;;;;9.81;42.89;101248.91;5014382;28;20291;-85
2022/01/05 04:34:11;;;;;;;;;;;;;;;9.68;43.34;101250.47;5014043;28;20012;-78
2022/01/05 04:36:37;;;;;;;;;;;;;;;9.88;42.76;101237.63;5013949;28;19964;-77
2022/01/05 04:39:03;;;;;;;;;;;;;;;9.86;42.96;101246.13;5013787;28;19914;-80
2022/01/05 04:41:28;;;;;;;;;;;;;;;9.83;43.00;101252.19;5013536;28;19983;-77
2022/01/05 04:43:54;;;;;;;;;;;;;;;9.77;43.03;101245.16;5013432;28;19928;-82
2022/01/05 04:46:19;;;;;;;;;;;;;;;9.63;43.33;101257.91;5013543;28;19918;-78
2022/01/05 04:48:45;;;;;;;;;;;;;;;9.56;43.39;101261.00;5013652;28;20391;-81
2022/01/05 04:51:10;;;;;;;;;;;;;;;9.85;42.79;101268.25;5013601;28;19918;-81
2022/01/05 04:53:36;;;;;;;;;;;;;;;9.87;42.74;101268.75;5013448;28;19917;-79
2022/01/05 04:56:01;;;;;;;;;;;;;;;9.88;42.71;101265.72;5013579;28;20411;-78
2022/01/05 04:58:27;;;;;;;;;;;;;;;9.87;42.71;101277.75;5013505;28;19918;-78
2022/01/05 05:00:52;;;;;;;;;;;;;;;9.86;42.70;101273.41;5013437;28;19963;-77
2022/01/05 05:03:18;;;;;;;;;;;;;;;9.85;42.79;101274.53;5013411;28;20280;-78
2022/01/05 05:05:43;;;;;;;;;;;;;;;9.83;42.98;101274.00;5013579;28;19917;-77
2022/01/05 05:08:09;;;;;;;;;;;;;;;9.84;42.78;101283.81;4996330;28;19930;-78
2022/01/05 05:10:34;;;;;;;;;;;;;;;9.86;42.88;101295.25;5013764;28;19917;-85
2022/01/05 05:13:06;;;;;;;;;;;;;;;9.95;42.57;101300.84;4996078;28;20380;-77
2022/01/05 05:15:31;;;;;;;;;;;;;;;9.99;42.73;101297.25;5013698;28;20443;-83
2022/01/05 05:17:57;;;;;;;;;;;;;;;9.94;42.78;101300.03;4997490;28;20016;-77
2022/01/05 05:20:22;;;;;;;;;;;;;;;10.11;42.47;101294.06;5018057;28;19940;-85
2022/01/05 05:22:48;;;;;;;;;;;;;;;10.08;42.55;101289.19;5017804;28;19917;-77
2022/01/05 05:25:13;;;;;;;;;;;;;;;10.10;42.62;101294.34;5000258;28;19917;-89
2022/01/05 05:27:39;;;;;;;;;;;;;;;10.17;42.45;101286.59;5018040;28;19921;-77
2022/01/05 05:30:04;;;;;;;;;;;;;;;10.11;42.62;101291.31;5017650;28;20008;-85
2022/01/05 05:32:30;;;;;;;;;;;;;;;10.20;42.52;101302.38;5017832;28;20296;-78
2022/01/05 05:34:55;;;;;;;;;;;;;;;10.29;42.31;101306.13;5017356;28;19963;-89
2022/01/05 05:37:22;;;;;;;;;;;;;;;10.28;42.35;101307.22;5000088;28;19976;-78
2022/01/05 05:39:48;;;;;;;;;;;;;;;10.16;42.74;101301.38;4999834;28;20368;-89
2022/01/05 05:42:13;;;;;;;;;;;;;;;10.20;42.36;101305.13;5017514;28;19925;-85
2022/01/05 05:44:39;;;;;;;;;;;;;;;10.32;42.31;101313.72;5021112;28;19932;-82
2022/01/05 05:47:07;;;;;;;;;;;;;;;10.34;42.49;101314.22;5017071;28;19921;-85
2022/01/05 05:49:32;;;;;;;;;;;;;;;10.35;42.44;101310.38;5017383;28;19925;-86
2022/01/05 05:51:58;;;;;;;;;;;;;;;10.44;42.17;101316.81;5017379;28;19922;-87
2022/01/05 05:54:23;;;;;;;;;;;;;;;10.41;42.30;101311.91;5017168;28;19980;-84
2022/01/05 05:56:49;;;;;;;;;;;;;;;10.15;43.06;101307.94;5017434;28;19921;-82
2022/01/05 05:59:14;;;;;;;;;;;;;;;10.33;42.52;101307.13;5017312;28;19917;-90
2022/01/05 06:01:40;;;;;;;;;;;;;;;10.24;42.75;101309.72;5017024;28;19925;-77
2022/01/05 06:04:05;;;;;;;;;;;;;;;10.05;43.16;101310.81;5016936;28;19918;-77
2022/01/05 06:06:32;;;;;;;;;;;;;;;10.00;43.20;101306.25;5017033;28;19913;-77
2022/01/05 06:08:57;;;;;;;;;;;;;;;10.02;43.13;101310.28;5017389;28;19961;-88
2022/01/05 06:11:23;;;;;;;;;;;;;;;9.73;43.93;101315.88;5017126;28;19967;-77
2022/01/05 06:13:50;;;;;;;;;;;;;;;9.72;43.98;101313.44;4999108;28;19924;-77
2022/01/05 06:16:15;;;;;;;;;;;;;;;9.80;43.89;101315.53;4999532;28;20283;-91
2022/01/05 06:18:41;;;;;;;;;;;;;;;9.75;43.88;101326.53;5016360;28;19921;-78
2022/01/05 06:21:06;;;;;;;;;;;;;;;9.51;44.38;101328.44;5016282;28;19925;-87
2022/01/05 06:23:32;;;;;;;;;;;;;;;9.80;43.50;101334.63;4998882;28;19971;-77
2022/01/05 06:25:57;;;;;;;;;;;;;;;9.69;43.79;101341.34;5016443;28;19924;-85
2022/01/05 06:28:23;;;;;;;;;;;;;;;9.56;44.09;101334.66;5016466;28;19918;-84
2022/01/05 06:30:48;;;;;;;;;;;;;;;9.56;44.16;101340.13;5016541;28;19921;-86
2022/01/05 06:33:15;;;;;;;;;;;;;;;9.62;43.98;101344.41;5016456;28;19918;-83
2022/01/05 06:35:40;;;;;;;;;;;;;;;9.64;43.69;101346.84;4999104;28;19924;-90
2022/01/05 06:38:06;;;;;;;;;;;;;;;9.59;43.88;101344.97;5016668;28;19972;-77
2022/01/05 06:40:31;;;;;;;;;;;;;;;9.68;43.54;101348.72;5016751;28;20027;-88
2022/01/05 06:42:59;;;;;;;;;;;;;;;9.60;43.56;101345.81;5016351;28;19917;-77
2022/01/05 06:45:24;;;;;;;;;;;;;;;9.54;43.82;101349.72;5016079;28;20264;-77
2022/01/05 06:47:50;;;;;;;;;;;;;;;9.39;44.04;101351.50;4998742;28;19967;-78
2022/01/05 06:50:15;;;;;;;;;;;;;;;9.46;43.77;101345.72;5016103;28;19917;-77
2022/01/05 06:52:41;;;;;;;;;;;;;;;9.43;44.02;101349.00;5016147;28;19917;-77
2022/01/05 06:55:06;;;;;;;;;;;;;;;9.44;43.88;101354.16;5016111;28;19917;-86
2022/01/05 06:57:32;;;;;;;;;;;;;;;9.38;44.06;101363.53;4998255;28;20272;-77
2022/01/05 06:59:57;;;;;;;;;;;;;;;9.34;44.11;101359.72;5015883;28;19918;-77
2022/01/05 07:02:23;;;;;;;;;;;;;;;9.39;44.24;101364.34;5015766;28;19924;-77
2022/01/05 07:04:48;;;;;;;;;;;;;;;9.26;44.47;101374.00;5016098;28;19921;-76
2022/01/05 07:07:14;;;;;;;;;;;;;;;9.45;44.24;101365.91;5015973;28;19925;-89
2022/01/05 07:09:40;;;;;;;;;;;;;;;9.50;43.88;101362.28;5015518;28;19922;-78
2022/01/05 07:12:06;;;;;;;;;;;;;;;9.40;44.25;101374.13;5015459;28;20280;-78
2022/01/05 07:14:31;;;;;;;;;;;;;;;9.43;44.14;101385.25;5015300;28;19924;-77
2022/01/05 07:16:57;;;;;;;;;;;;;;;9.38;44.38;101382.63;5015298;28;20013;-84
2022/01/05 07:19:22;;;;;;;;;;;;;;;9.65;43.76;101394.84;5015473;28;19917;-78
2022/01/05 07:21:48;;;;;;;;;;;;;;;9.61;44.07;101397.38;5015281;28;19972;-78
2022/01/05 07:24:17;;;;;;;;;;;;;;;9.69;43.87;101399.44;4997874;28;19918;-84
2022/01/05 07:26:44;;;;;;;;;;;;;;;9.54;44.25;101416.00;5015438;28;19920;-82
2022/01/05 07:29:09;;;;;;;;;;;;;;;9.52;44.54;101417.38;5015371;28;19921;-78
2022/01/05 07:31:35;;;;;;;;;;;;;;;9.23;45.09;101426.41;5015131;28;19917;-77
2022/01/05 07:34:00;;;;;;;;;;;;;;;9.39;44.96;101436.06;5014826;28;19956;-77
2022/01/05 07:36:26;;;;;;;;;;;;;;;9.59;44.40;101445.94;5014905;28;19918;-81
2022/01/05 07:38:51;;;;;;;;;;;;;;;9.57;44.66;101439.16;5015134;28;19913;-82
2022/01/05 07:41:17;;;;;;;;;;;;;;;9.21;45.58;101447.66;4996494;28;19917;-78
2022/01/05 07:43:43;;;;;;;;;;;;;;;9.87;44.01;101438.00;5014446;28;19928;-77
2022/01/05 07:46:08;;;;;;;;;;;;;;;9.86;44.00;101437.19;5014716;28;19922;-77
2022/01/05 07:48:33;;;;;;;;;;;;;;;9.74;44.27;101445.75;4997081;28;19967;-77
2022/01/05 07:50:59;;;;;;;;;;;;;;;9.79;44.03;101447.63;5014674;28;20371;-79
2022/01/05 07:53:24;;;;;;;;;;;;;;;9.96;43.76;101449.88;5014537;28;19924;-78
2022/01/05 07:55:50;;;;;;;;;;;;;;;9.93;43.65;101454.03;4996972;28;19967;-77
2022/01/05 07:58:16;;;;;;;;;;;;;;;9.92;43.93;101468.78;5014583;28;19917;-76
2022/01/05 08:00:41;;;;;;;;;;;;;;;9.97;43.73;101468.75;5014143;28;19924;-77
2022/01/05 08:03:06;;;;;;;;;;;;;;;9.86;44.03;101472.66;5014360;28;19921;-82
2022/01/05 08:05:32;;;;;;;;;;;;;;;10.09;43.33;101462.03;5014478;28;19917;-84
2022/01/05 08:07:58;;;;;;;;;;;;;;;9.94;43.55;101458.38;4996738;28;19917;-76
2022/01/05 08:10:24;;;;;;;;;;;;;;;9.92;43.88;101455.13;5018409;28;19927;-77
2022/01/05 08:12:49;;;;;;;;;;;;;;;9.73;44.29;101476.91;5032969;28;20008;-83
2022/01/05 08:15:15;;;;;;;;;;;;;;;9.64;44.36;101483.28;5034301;28;20376;-77
2022/01/05 08:17:41;;;;;;;;;;;;;;;9.84;44.01;101488.53;5016121;28;19961;-86
2022/01/05 08:20:10;;;;;;;;;;;;;;;9.95;43.59;101481.84;5034032;28;19917;-87
2022/01/05 08:22:40;;;;;;;;;;;;;;;9.98;43.66;101502.31;5032672;28;20485;-77
2022/01/05 08:25:05;;;;;;;;;;;;;;;10.10;43.43;101499.97;5032766;28;20450;-77
2022/01/05 08:27:30;;;;;;;;;;;;;;;10.19;43.37;101511.88;5032766;28;20021;-77
2022/01/05 08:29:56;;;;;;;;;;;;;;;10.32;43.08;101520.50;5014937;28;20298;-78
2022/01/05 08:32:21;;;;;;;;;;;;;;;10.27;43.35;101519.44;5032836;28;20012;-80
2022/01/05 08:34:47;;;;;;;;;;;;;;;10.31;43.17;101530.63;5032326;28;20375;-77
2022/01/05 08:37:12;;;;;;;;;;;;;;;10.33;43.21;101527.59;5015245;28;19917;-81
2022/01/05 08:39:38;;;;;;;;;;;;;;;10.41;42.84;101535.13;5032545;28;19917;-78
2022/01/05 08:42:03;;;;;;;;;;;;;;;10.36;43.19;101548.88;5014638;28;19921;-78
2022/01/05 08:44:30;;;;;;;;;;;;;;;10.44;42.89;101546.31;5032975;28;20383;-81
2022/01/05 08:46:56;;;;;;;;;;;;;;;10.53;42.58;101544.53;5033453;28;20353;-82
2022/01/05 08:49:21;;;;;;;;;;;;;;;10.60;42.68;101544.19;5015563;28;20020;-77
2022/01/05 08:51:46;;;;;;;;;;;;;;;10.63;42.62;101551.78;5032497;28;19917;-77
2022/01/05 08:54:12;;;;;;;;;;;;;;;10.60;42.79;101562.50;5032846;28;20437;-76
2022/01/05 08:56:38;;;;;;;;;;;;;;;10.64;42.49;101567.06;5032542;28;19923;-82
2022/01/05 08:59:03;;;;;;;;;;;;;;;10.68;42.60;101576.34;5032798;28;20000;-82
2022/01/05 09:01:30;;;;;;;;;;;;;;;10.82;42.53;101576.44;5032683;28;20282;-82
2022/01/05 09:03:55;;;;;;;;;;;;;;;10.63;42.96;101572.84;5032418;28;19917;-83
2022/01/05 09:06:22;;;;;;;;;;;;;;;10.86;42.38;101580.19;5032557;28;20402;-83
2022/01/05 09:08:47;;;;;;;;;;;;;;;10.96;42.27;101585.53;5014799;28;19970;-78
2022/01/05 09:11:15;;;;;;;;;;;;;;;11.06;42.28;101588.13;5032050;28;19917;-78
2022/01/05 09:13:40;;;;;;;;;;;;;;;10.93;42.29;101591.56;5014988;28;20301;-77
2022/01/05 09:16:06;;;;;;;;;;;;;;;11.03;42.32;101594.19;5032900;28;19917;-84
2022/01/05 09:18:31;;;;;;;;;;;;;;;11.06;42.37;101601.78;5032926;28;19917;-82
2022/01/05 09:20:57;;;;;;;;;;;;;;;11.10;42.34;101605.53;5032827;28;20263;-77
2022/01/05 09:23:22;;;;;;;;;;;;;;;11.05;42.41;101611.09;5014640;28;19917;-83
2022/01/05 09:25:47;;;;;;;;;;;;;;;11.02;42.24;101606.22;5015185;28;19917;-83
2022/01/05 09:28:13;;;;;;;;;;;;;;;11.14;42.19;101607.72;5032766;28;19971;-82
2022/01/05 09:30:38;;;;;;;;;;;;;;;11.11;42.34;101599.00;5015505;28;19921;-80
2022/01/05 09:33:04;;;;;;;;;;;;;;;11.11;42.36;101604.47;5032699;28;19917;-82
2022/01/05 09:35:29;;;;;;;;;;;;;;;11.25;42.10;101603.69;5032727;28;19921;-79
2022/01/05 09:43:06;;;;;;;;;;;;;;;11.02;42.62;101608.13;5015812;28;19971;-81
2022/01/05 09:45:33;;;;;;;;;;;;;;;11.23;42.16;101605.94;5020893;28;19960;-82
2022/01/05 09:48:05;;;;;;;;;;;;;;;11.09;42.33;101606.66;5017030;28;20172;-82
2022/01/05 09:50:31;;;;;;;;;;;;;;;11.45;41.72;101608.06;4998793;28;19921;-83
2022/01/05 09:52:57;;;;;;;;;;;;;;;11.35;42.26;101628.19;5016566;28;19987;-81
2022/01/05 09:55:23;;;;;;;;;;;;;;;11.49;42.00;101634.56;5016247;28;20389;-79
2022/01/05 09:57:48;;;;;;;;;;;;;;;11.22;42.20;101637.94;5013771;28;19925;-79
2022/01/05 10:00:14;;;;;;;;;;;;;;;11.42;41.91;101645.06;5015704;28;20388;-79
2022/01/05 10:02:41;;;;;;;;;;;;;;;11.17;42.30;101650.88;5015573;28;19925;-78
2022/01/05 10:05:10;;;;;;;;;;;;;;;11.30;42.26;101661.09;5016499;28;19921;-77
2022/01/05 10:07:35;;;;;;;;;;;;;;;10.98;42.86;101665.34;5021217;28;20296;-77
2022/01/05 10:10:01;;;;;;;;;;;;;;;11.45;42.00;101658.13;5023400;28;19921;-78
2022/01/05 10:12:26;;;;;;;;;;;;;;;11.47;42.03;101657.81;5011987;28;19984;-81
2022/01/05 10:14:52;;;;;;;;;;;;;;;11.70;41.71;101653.38;5017963;28;19917;-80
2022/01/05 10:17:28;;;;;;;;;;;;;;;11.53;41.70;101651.19;5007178;28;19924;-84
2022/01/05 10:19:58;;;;;;;;;;;;;;;11.77;41.72;101660.09;5014605;28;19929;-89
2022/01/05 10:22:27;;;;;;;;;;;;;;;11.93;41.33;101666.97;5027212;28;19931;-77
2022/01/05 10:24:56;;;;;;;;;;;;;;;11.85;41.57;101664.09;5021798;28;19971;-78
2022/01/05 10:27:22;;;;;;;;;;;;;;;11.78;41.79;101669.13;5024255;28;20393;-77
2022/01/05 10:29:54;;;;;;;;;;;;;;;12.06;41.10;101664.59;5022556;28;19925;-77
2022/01/05 10:32:19;;;;;;;;;;;;;;;12.03;41.36;101671.50;5020714;28;19925;-85
2022/01/05 10:34:57;;;;;;;;;;;;;;;12.10;41.22;101676.59;5024376;28;19962;-81
2022/01/05 10:37:24;;;;;;;;;;;;;;;12.18;41.07;101673.97;4999731;28;19929;-79
2022/01/05 10:40:02;;;;;;;;;;;;;;;12.38;40.88;101664.53;5002023;28;19917;-83
2022/01/05 10:42:34;;;;;;;;;;;;;;;12.37;41.06;101675.81;5016086;28;20007;-80
2022/01/05 10:45:05;;;;;;;;;;;;;;;12.38;40.89;101689.22;5001363;28;19937;-78
2022/01/05 10:47:31;;;;;;;;;;;;;;;12.41;40.83;101685.88;5000867;28;20295;-82
2022/01/05 10:49:56;;;;;;;;;;;;;;;12.52;40.78;101702.13;5004108;28;19921;-78
2022/01/05 10:52:23;;;;;;;;;;;;;;;12.43;40.70;101702.81;5021762;28;19921;-78
2022/01/05 10:54:49;;;;;;;;;;;;;;;12.41;41.07;101707.81;5024777;28;19921;-80
2022/01/05 10:57:15;;;;;;;;;;;;;;;12.51;40.97;101701.31;5029346;28;19920;-84
2022/01/05 10:59:44;;;;;;;;;;;;;;;12.44;40.92;101700.91;5005343;28;19925;-81
2022/01/05 11:02:19;;;;;;;;;;;;;;;12.53;41.11;101710.03;5026647;28;19932;-81
2022/01/05 11:04:47;;;;;;;;;;;;;;;12.36;41.63;101704.34;5021138;28;19930;-79
2022/01/05 11:07:19;;;;;;;;;;;;;;;12.70;40.88;101704.00;5020695;28;19929;-81
2022/01/05 11:09:52;;;;;;;;;;;;;;;12.45;41.44;101702.53;5003679;28;20383;-82
2022/01/05 11:12:18;;;;;;;;;;;;;;;12.67;40.75;101712.81;5002115;28;19930;-85
2022/01/05 11:14:43;;;;;;;;;;;;;;;13.01;40.46;101709.69;5004124;28;19925;-83
2022/01/05 11:17:08;;;;;;;;;;;;;;;12.99;40.39;101723.69;5020297;28;20047;-84
2022/01/05 11:19:38;;;;;;;;;;;;;;;13.14;40.27;101722.56;5002082;28;19917;-80
2022/01/05 11:22:17;;;;;;;;;;;;;;;13.15;40.11;101720.63;5007052;28;19921;-87
2022/01/05 11:24:43;;;;;;;;;;;;;;;13.23;40.31;101725.44;5020816;28;20379;-84
2022/01/05 11:27:11;;;;;;;;;;;;;;;12.96;40.89;101737.22;5020288;28;20441;-81
2022/01/05 11:29:37;;;;;;;;;;;;;;;13.14;40.31;101741.75;5003155;28;19924;-91
2022/01/05 11:32:05;;;;;;;;;;;;;;;13.13;40.43;101744.81;5003364;28;20284;-82
2022/01/05 11:34:30;;;;;;;;;;;;;;;13.04;40.50;101741.97;5018034;28;19917;-82
2022/01/05 11:36:56;;;;;;;;;;;;;;;13.18;40.51;101740.03;5020535;28;19936;-84
2022/01/05 11:39:22;;;;;;;;;;;;;;;13.46;40.20;101740.06;5018837;28;19921;-88
2022/01/05 11:41:49;;;;;;;;;;;;;;;13.30;40.06;101740.38;5022068;28;20328;-79
2022/01/05 11:44:16;;;;;;;;;;;;;;;13.37;40.30;101747.38;5021319;28;19986;-79
2022/01/05 11:46:44;;;;;;;;;;;;;;;13.47;40.27;101749.91;5025903;28;19933;-78
2022/01/05 11:49:11;;;;;;;;;;;;;;;13.18;40.48;101753.78;5007059;28;19925;-79
2022/01/05 11:51:43;;;;;;;;;;;;;;;13.06;40.67;101751.53;5007750;28;20008;-90
2022/01/05 11:54:13;;;;;;;;;;;;;;;13.16;40.42;101758.75;5005188;28;20594;-78
2022/01/05 11:56:42;;;;;;;;;;;;;;;13.32;40.20;101754.59;5014465;28;19917;-80
2022/01/05 11:59:19;;;;;;;;;;;;;;;13.40;40.23;101755.00;5022717;28;19921;-79
2022/01/05 12:01:56;;;;;;;;;;;;;;;13.20;40.27;101761.72;5026619;28;19935;-77
2022/01/05 12:04:22;;;;;;;;;;;;;;;13.27;40.36;101764.88;5009090;28;19917;-77
2022/01/05 12:06:47;;;;;;;;;;;;;;;13.31;40.36;101757.66;5022365;28;20004;-78
2022/01/05 12:09:21;;;;;;;;;;;;;;;13.28;40.38;101745.34;5029605;28;20008;-77
2022/01/05 12:11:46;;;;;;;;;;;;;;;13.15;40.71;101759.03;5026085;28;19973;-77
2022/01/05 12:14:12;;;;;;;;;;;;;;;13.34;40.24;101754.28;5008685;28;19925;-77
2022/01/05 12:16:55;;;;;;;;;;;;;;;13.53;39.97;101759.66;5000353;28;19927;-78
2022/01/05 12:19:22;;;;;;;;;;;;;;;13.23;40.34;101761.13;5027542;28;20064;-78
2022/01/05 12:21:48;;;;;;;;;;;;;;;13.62;39.86;101763.31;5014575;28;19939;-78
2022/01/05 12:24:14;;;;;;;;;;;;;;;13.64;39.98;101763.81;5027007;28;20015;-89
2022/01/05 12:26:40;;;;;;;;;;;;;;;13.53;39.84;101765.16;5006069;28;20012;-78
2022/01/05 12:29:05;;;;;;;;;;;;;;;13.71;39.55;101769.69;5027922;28;19923;-77
2022/01/05 12:31:49;;;;;;;;;;;;;;;13.75;39.71;101765.22;5022584;28;20276;-77
2022/01/05 12:34:34;;;;;;;;;;;;;;;13.86;39.78;101774.03;5025119;28;20496;-78
2022/01/05 12:36:59;;;;;;;;;;;;;;;13.70;40.02;101789.22;5002578;28;19967;-77
2022/01/05 12:39:45;;;;;;;;;;;;;;;13.92;39.72;101778.28;5016619;28;19933;-79
2022/01/05 12:42:22;;;;;;;;;;;;;;;13.98;39.55;101781.69;5027827;28;19921;-90